sensor_id;sensor_type;location;lat;lon;timestamp;P1;durP1;ratioP1;P2;durP2;ratioP2
20497;SDS011;10407;53.238;10.448;2023-06-24T00:02:27;97.87;;;15.53;;
20497;SDS011;10407;53.238;10.448;2023-06-24T00:04:54;98.80;;;16.57;;
20497;SDS011;10407;53.238;10.448;2023-06-24T00:07:23;104.77;;;24.30;;
20497;SDS011;10407;53.238;10.448;2023-06-24T00:09:52;99.87;;;18.43;;
20497;SDS011;10407;53.238;10.448;2023-06-24T00:12:19;100.93;;;19.70;;
20497;SDS011;10407;53.238;10.448;2023-06-24T00:14:47;101.27;;;19.73;;
20497;SDS011;10407;53.238;10.448;2023-06-24T00:17:15;96.70;;;16.87;;
20497;SDS011;10407;53.238;10.448;2023-06-24T00:19:42;99.00;;;17.47;;
20497;SDS011;10407;53.238;10.448;2023-06-24T00:22:12;101.10;;;19.80;;
20497;SDS011;10407;53.238;10.448;2023-06-24T00:24:40;96.70;;;16.43;;
20497;SDS011;10407;53.238;10.448;2023-06-24T00:27:08;98.00;;;17.00;;
20497;SDS011;10407;53.238;10.448;2023-06-24T00:29:36;100.87;;;19.80;;
20497;SDS011;10407;53.238;10.448;2023-06-24T00:32:04;97.67;;;18.53;;
20497;SDS011;10407;53.238;10.448;2023-06-24T00:34:32;98.40;;;15.70;;
20497;SDS011;10407;53.238;10.448;2023-06-24T00:37:00;102.87;;;17.00;;
20497;SDS011;10407;53.238;10.448;2023-06-24T00:39:29;99.17;;;18.00;;
20497;SDS011;10407;53.238;10.448;2023-06-24T00:41:57;97.93;;;15.43;;
20497;SDS011;10407;53.238;10.448;2023-06-24T00:44:25;96.47;;;15.87;;
20497;SDS011;10407;53.238;10.448;2023-06-24T00:46:53;100.37;;;17.40;;
20497;SDS011;10407;53.238;10.448;2023-06-24T00:49:21;96.30;;;15.43;;
20497;SDS011;10407;53.238;10.448;2023-06-24T00:51:48;106.37;;;15.97;;
20497;SDS011;10407;53.238;10.448;2023-06-24T00:54:18;96.27;;;14.40;;
20497;SDS011;10407;53.238;10.448;2023-06-24T00:56:46;101.00;;;15.07;;
20497;SDS011;10407;53.238;10.448;2023-06-24T00:59:14;102.50;;;16.80;;
20497;SDS011;10407;53.238;10.448;2023-06-24T01:05:07;101.17;;;16.27;;
20497;SDS011;10407;53.238;10.448;2023-06-24T01:07:35;95.43;;;14.80;;
20497;SDS011;10407;53.238;10.448;2023-06-24T01:10:05;108.33;;;16.93;;
20497;SDS011;10407;53.238;10.448;2023-06-24T01:12:34;98.30;;;16.03;;
20497;SDS011;10407;53.238;10.448;2023-06-24T01:15:08;97.50;;;16.27;;
20497;SDS011;10407;53.238;10.448;2023-06-24T01:17:44;99.20;;;17.67;;
20497;SDS011;10407;53.238;10.448;2023-06-24T01:20:23;101.10;;;17.40;;
20497;SDS011;10407;53.238;10.448;2023-06-24T01:28:36;100.17;;;20.33;;
20497;SDS011;10407;53.238;10.448;2023-06-24T01:33:59;117.67;;;23.93;;
20497;SDS011;10407;53.238;10.448;2023-06-24T01:36:29;236.10;;;68.67;;
20497;SDS011;10407;53.238;10.448;2023-06-24T01:39:03;261.47;;;81.37;;
20497;SDS011;10407;53.238;10.448;2023-06-24T01:41:40;168.37;;;46.60;;
20497;SDS011;10407;53.238;10.448;2023-06-24T01:44:09;105.90;;;22.03;;
20497;SDS011;10407;53.238;10.448;2023-06-24T01:46:38;98.93;;;18.30;;
20497;SDS011;10407;53.238;10.448;2023-06-24T01:49:09;105.60;;;17.20;;
20497;SDS011;10407;53.238;10.448;2023-06-24T01:51:39;100.83;;;15.87;;
20497;SDS011;10407;53.238;10.448;2023-06-24T01:54:13;99.90;;;16.30;;
20497;SDS011;10407;53.238;10.448;2023-06-24T01:56:45;100.47;;;15.03;;
20497;SDS011;10407;53.238;10.448;2023-06-24T01:59:15;102.43;;;15.63;;
20497;SDS011;10407;53.238;10.448;2023-06-24T02:01:44;99.27;;;17.80;;
20497;SDS011;10407;53.238;10.448;2023-06-24T02:04:12;106.07;;;16.77;;
20497;SDS011;10407;53.238;10.448;2023-06-24T02:06:41;100.70;;;18.03;;
20497;SDS011;10407;53.238;10.448;2023-06-24T02:09:11;100.67;;;18.50;;
20497;SDS011;10407;53.238;10.448;2023-06-24T02:11:41;107.50;;;18.47;;
20497;SDS011;10407;53.238;10.448;2023-06-24T02:14:10;101.23;;;17.90;;
20497;SDS011;10407;53.238;10.448;2023-06-24T02:16:38;101.93;;;17.40;;
20497;SDS011;10407;53.238;10.448;2023-06-24T02:19:08;102.30;;;15.97;;
20497;SDS011;10407;53.238;10.448;2023-06-24T02:21:39;96.63;;;14.30;;
20497;SDS011;10407;53.238;10.448;2023-06-24T02:24:07;100.50;;;16.53;;
20497;SDS011;10407;53.238;10.448;2023-06-24T02:26:36;100.47;;;14.70;;
20497;SDS011;10407;53.238;10.448;2023-06-24T02:29:07;103.20;;;17.73;;
20497;SDS011;10407;53.238;10.448;2023-06-24T02:31:36;106.67;;;18.40;;
20497;SDS011;10407;53.238;10.448;2023-06-24T02:34:04;99.17;;;17.13;;
20497;SDS011;10407;53.238;10.448;2023-06-24T02:36:32;101.40;;;17.00;;
20497;SDS011;10407;53.238;10.448;2023-06-24T02:38:59;101.93;;;17.93;;
20497;SDS011;10407;53.238;10.448;2023-06-24T02:41:27;98.17;;;17.37;;
20497;SDS011;10407;53.238;10.448;2023-06-24T02:43:55;100.50;;;18.33;;
20497;SDS011;10407;53.238;10.448;2023-06-24T02:46:23;102.73;;;17.23;;
20497;SDS011;10407;53.238;10.448;2023-06-24T02:48:55;102.27;;;20.03;;
20497;SDS011;10407;53.238;10.448;2023-06-24T02:51:25;103.97;;;21.40;;
20497;SDS011;10407;53.238;10.448;2023-06-24T02:53:53;100.67;;;16.87;;
20497;SDS011;10407;53.238;10.448;2023-06-24T02:56:24;101.17;;;18.53;;
20497;SDS011;10407;53.238;10.448;2023-06-24T02:58:53;101.17;;;17.87;;
20497;SDS011;10407;53.238;10.448;2023-06-24T03:01:21;103.87;;;18.57;;
20497;SDS011;10407;53.238;10.448;2023-06-24T03:03:54;103.63;;;20.80;;
20497;SDS011;10407;53.238;10.448;2023-06-24T03:06:23;100.97;;;20.07;;
20497;SDS011;10407;53.238;10.448;2023-06-24T03:08:53;104.23;;;19.93;;
20497;SDS011;10407;53.238;10.448;2023-06-24T03:11:20;101.07;;;19.40;;
20497;SDS011;10407;53.238;10.448;2023-06-24T03:13:48;105.37;;;20.47;;
20497;SDS011;10407;53.238;10.448;2023-06-24T03:16:15;102.47;;;18.33;;
20497;SDS011;10407;53.238;10.448;2023-06-24T03:18:43;101.03;;;20.13;;
20497;SDS011;10407;53.238;10.448;2023-06-24T03:21:11;101.77;;;19.90;;
20497;SDS011;10407;53.238;10.448;2023-06-24T03:23:38;101.00;;;20.40;;
20497;SDS011;10407;53.238;10.448;2023-06-24T03:26:06;102.00;;;20.60;;
20497;SDS011;10407;53.238;10.448;2023-06-24T03:28:33;101.00;;;21.50;;
20497;SDS011;10407;53.238;10.448;2023-06-24T03:31:01;100.33;;;19.77;;
20497;SDS011;10407;53.238;10.448;2023-06-24T03:33:28;99.30;;;19.83;;
20497;SDS011;10407;53.238;10.448;2023-06-24T03:35:56;103.20;;;20.80;;
20497;SDS011;10407;53.238;10.448;2023-06-24T03:38:23;103.70;;;22.80;;
20497;SDS011;10407;53.238;10.448;2023-06-24T03:40:51;101.37;;;21.47;;
20497;SDS011;10407;53.238;10.448;2023-06-24T03:43:19;99.73;;;20.23;;
20497;SDS011;10407;53.238;10.448;2023-06-24T03:45:46;103.60;;;21.87;;
20497;SDS011;10407;53.238;10.448;2023-06-24T03:48:14;99.23;;;19.27;;
20497;SDS011;10407;53.238;10.448;2023-06-24T03:50:41;97.17;;;17.03;;
20497;SDS011;10407;53.238;10.448;2023-06-24T03:53:09;100.93;;;18.90;;
20497;SDS011;10407;53.238;10.448;2023-06-24T03:55:36;101.47;;;19.97;;
20497;SDS011;10407;53.238;10.448;2023-06-24T03:58:04;99.07;;;18.67;;
20497;SDS011;10407;53.238;10.448;2023-06-24T04:00:32;98.80;;;17.20;;
20497;SDS011;10407;53.238;10.448;2023-06-24T04:02:59;98.80;;;18.33;;
20497;SDS011;10407;53.238;10.448;2023-06-24T04:05:27;98.17;;;15.50;;
20497;SDS011;10407;53.238;10.448;2023-06-24T04:07:54;98.47;;;17.03;;
20497;SDS011;10407;53.238;10.448;2023-06-24T04:13:45;98.30;;;15.50;;
20497;SDS011;10407;53.238;10.448;2023-06-24T04:16:14;100.90;;;15.27;;
20497;SDS011;10407;53.238;10.448;2023-06-24T04:18:42;99.03;;;14.60;;
20497;SDS011;10407;53.238;10.448;2023-06-24T04:21:10;99.23;;;14.97;;
20497;SDS011;10407;53.238;10.448;2023-06-24T04:23:37;97.23;;;14.70;;
20497;SDS011;10407;53.238;10.448;2023-06-24T04:26:05;95.33;;;14.60;;
20497;SDS011;10407;53.238;10.448;2023-06-24T04:28:32;96.30;;;15.20;;
20497;SDS011;10407;53.238;10.448;2023-06-24T04:31:00;96.53;;;14.50;;
20497;SDS011;10407;53.238;10.448;2023-06-24T04:33:28;98.57;;;17.40;;
20497;SDS011;10407;53.238;10.448;2023-06-24T04:35:55;97.97;;;16.27;;
20497;SDS011;10407;53.238;10.448;2023-06-24T04:38:24;99.70;;;17.77;;
20497;SDS011;10407;53.238;10.448;2023-06-24T04:40:52;100.30;;;17.10;;
20497;SDS011;10407;53.238;10.448;2023-06-24T04:43:19;99.47;;;18.10;;
20497;SDS011;10407;53.238;10.448;2023-06-24T04:45:47;100.73;;;17.60;;
20497;SDS011;10407;53.238;10.448;2023-06-24T04:48:14;96.53;;;15.30;;
20497;SDS011;10407;53.238;10.448;2023-06-24T04:50:42;97.43;;;15.30;;
20497;SDS011;10407;53.238;10.448;2023-06-24T04:53:12;98.30;;;14.93;;
20497;SDS011;10407;53.238;10.448;2023-06-24T04:55:41;98.20;;;16.37;;
20497;SDS011;10407;53.238;10.448;2023-06-24T04:58:09;98.20;;;15.13;;
20497;SDS011;10407;53.238;10.448;2023-06-24T05:00:36;101.10;;;17.07;;
20497;SDS011;10407;53.238;10.448;2023-06-24T05:03:04;99.60;;;17.97;;
20497;SDS011;10407;53.238;10.448;2023-06-24T05:05:31;96.70;;;17.77;;
20497;SDS011;10407;53.238;10.448;2023-06-24T05:07:59;98.10;;;17.97;;
20497;SDS011;10407;53.238;10.448;2023-06-24T05:10:26;96.50;;;17.70;;
20497;SDS011;10407;53.238;10.448;2023-06-24T05:12:54;99.90;;;18.40;;
20497;SDS011;10407;53.238;10.448;2023-06-24T05:15:21;103.23;;;22.87;;
20497;SDS011;10407;53.238;10.448;2023-06-24T05:17:49;104.80;;;23.17;;
20497;SDS011;10407;53.238;10.448;2023-06-24T05:20:16;111.57;;;26.07;;
20497;SDS011;10407;53.238;10.448;2023-06-24T05:26:06;100.23;;;20.00;;
20497;SDS011;10407;53.238;10.448;2023-06-24T05:28:34;104.40;;;19.37;;
20497;SDS011;10407;53.238;10.448;2023-06-24T05:31:01;98.67;;;18.47;;
20497;SDS011;10407;53.238;10.448;2023-06-24T05:33:29;98.33;;;18.20;;
20497;SDS011;10407;53.238;10.448;2023-06-24T05:35:56;97.97;;;17.30;;
20497;SDS011;10407;53.238;10.448;2023-06-24T05:38:24;96.67;;;17.70;;
20497;SDS011;10407;53.238;10.448;2023-06-24T05:40:51;95.40;;;16.63;;
20497;SDS011;10407;53.238;10.448;2023-06-24T05:43:19;97.70;;;15.97;;
20497;SDS011;10407;53.238;10.448;2023-06-24T05:48:44;94.50;;;14.60;;
20497;SDS011;10407;53.238;10.448;2023-06-24T05:51:12;94.30;;;14.67;;
20497;SDS011;10407;53.238;10.448;2023-06-24T05:53:40;94.43;;;14.50;;
20497;SDS011;10407;53.238;10.448;2023-06-24T05:56:07;93.13;;;13.93;;
20497;SDS011;10407;53.238;10.448;2023-06-24T05:58:35;94.00;;;13.30;;
20497;SDS011;10407;53.238;10.448;2023-06-24T06:01:03;93.90;;;13.63;;
20497;SDS011;10407;53.238;10.448;2023-06-24T06:03:31;93.87;;;13.37;;
20497;SDS011;10407;53.238;10.448;2023-06-24T06:05:58;94.70;;;13.67;;
20497;SDS011;10407;53.238;10.448;2023-06-24T06:08:26;94.80;;;15.10;;
20497;SDS011;10407;53.238;10.448;2023-06-24T06:10:53;94.97;;;13.77;;
20497;SDS011;10407;53.238;10.448;2023-06-24T06:13:21;94.77;;;13.93;;
20497;SDS011;10407;53.238;10.448;2023-06-24T06:15:48;94.53;;;13.87;;
20497;SDS011;10407;53.238;10.448;2023-06-24T06:18:16;95.30;;;13.80;;
20497;SDS011;10407;53.238;10.448;2023-06-24T06:20:44;94.37;;;14.67;;
20497;SDS011;10407;53.238;10.448;2023-06-24T06:23:11;92.40;;;13.63;;
20497;SDS011;10407;53.238;10.448;2023-06-24T06:25:39;99.07;;;14.27;;
20497;SDS011;10407;53.238;10.448;2023-06-24T06:28:06;97.30;;;12.60;;
20497;SDS011;10407;53.238;10.448;2023-06-24T06:30:34;94.67;;;13.20;;
20497;SDS011;10407;53.238;10.448;2023-06-24T06:33:01;92.93;;;12.70;;
20497;SDS011;10407;53.238;10.448;2023-06-24T06:35:29;92.17;;;13.53;;
20497;SDS011;10407;53.238;10.448;2023-06-24T06:37:57;90.20;;;11.60;;
20497;SDS011;10407;53.238;10.448;2023-06-24T06:40:25;91.80;;;13.13;;
20497;SDS011;10407;53.238;10.448;2023-06-24T06:42:54;93.03;;;13.80;;
20497;SDS011;10407;53.238;10.448;2023-06-24T06:45:21;94.23;;;16.27;;
20497;SDS011;10407;53.238;10.448;2023-06-24T06:47:49;95.67;;;16.60;;
20497;SDS011;10407;53.238;10.448;2023-06-24T06:50:17;97.03;;;15.07;;
20497;SDS011;10407;53.238;10.448;2023-06-24T06:52:45;92.90;;;14.93;;
20497;SDS011;10407;53.238;10.448;2023-06-24T06:55:12;99.20;;;15.13;;
20497;SDS011;10407;53.238;10.448;2023-06-24T06:57:40;93.77;;;14.90;;
20497;SDS011;10407;53.238;10.448;2023-06-24T07:00:08;95.57;;;15.87;;
20497;SDS011;10407;53.238;10.448;2023-06-24T07:02:36;92.53;;;13.47;;
20497;SDS011;10407;53.238;10.448;2023-06-24T07:05:04;96.60;;;16.17;;
20497;SDS011;10407;53.238;10.448;2023-06-24T07:07:32;92.20;;;14.90;;
20497;SDS011;10407;53.238;10.448;2023-06-24T07:10:04;91.53;;;13.53;;
20497;SDS011;10407;53.238;10.448;2023-06-24T07:12:32;94.73;;;15.40;;
20497;SDS011;10407;53.238;10.448;2023-06-24T07:15:00;95.13;;;15.67;;
20497;SDS011;10407;53.238;10.448;2023-06-24T07:17:27;91.73;;;13.93;;
20497;SDS011;10407;53.238;10.448;2023-06-24T07:19:55;94.37;;;14.70;;
20497;SDS011;10407;53.238;10.448;2023-06-24T07:22:22;93.27;;;15.50;;
20497;SDS011;10407;53.238;10.448;2023-06-24T07:24:50;91.30;;;13.50;;
20497;SDS011;10407;53.238;10.448;2023-06-24T07:27:17;95.67;;;14.13;;
20497;SDS011;10407;53.238;10.448;2023-06-24T07:29:45;93.20;;;13.83;;
20497;SDS011;10407;53.238;10.448;2023-06-24T07:32:13;92.30;;;13.73;;
20497;SDS011;10407;53.238;10.448;2023-06-24T07:34:40;93.20;;;14.43;;
20497;SDS011;10407;53.238;10.448;2023-06-24T07:37:08;94.10;;;15.17;;
20497;SDS011;10407;53.238;10.448;2023-06-24T07:39:36;92.17;;;14.80;;
20497;SDS011;10407;53.238;10.448;2023-06-24T07:42:03;92.67;;;14.87;;
20497;SDS011;10407;53.238;10.448;2023-06-24T07:44:31;99.40;;;14.30;;
20497;SDS011;10407;53.238;10.448;2023-06-24T07:46:59;93.27;;;15.60;;
20497;SDS011;10407;53.238;10.448;2023-06-24T07:49:26;93.07;;;14.00;;
20497;SDS011;10407;53.238;10.448;2023-06-24T07:51:54;93.00;;;14.67;;
20497;SDS011;10407;53.238;10.448;2023-06-24T07:54:21;95.27;;;14.63;;
20497;SDS011;10407;53.238;10.448;2023-06-24T07:56:49;93.77;;;14.70;;
20497;SDS011;10407;53.238;10.448;2023-06-24T07:59:16;92.27;;;14.07;;
20497;SDS011;10407;53.238;10.448;2023-06-24T08:01:44;89.97;;;12.63;;
20497;SDS011;10407;53.238;10.448;2023-06-24T08:04:11;94.60;;;13.53;;
20497;SDS011;10407;53.238;10.448;2023-06-24T08:06:39;92.87;;;12.10;;
20497;SDS011;10407;53.238;10.448;2023-06-24T08:09:07;91.37;;;12.17;;
20497;SDS011;10407;53.238;10.448;2023-06-24T08:11:34;90.10;;;12.03;;
20497;SDS011;10407;53.238;10.448;2023-06-24T08:14:02;92.20;;;11.90;;
20497;SDS011;10407;53.238;10.448;2023-06-24T08:16:29;89.70;;;11.30;;
20497;SDS011;10407;53.238;10.448;2023-06-24T08:18:57;89.40;;;12.33;;
20497;SDS011;10407;53.238;10.448;2023-06-24T08:21:24;92.30;;;11.90;;
20497;SDS011;10407;53.238;10.448;2023-06-24T08:23:52;89.30;;;11.23;;
20497;SDS011;10407;53.238;10.448;2023-06-24T08:26:20;89.07;;;10.07;;
20497;SDS011;10407;53.238;10.448;2023-06-24T08:28:47;90.50;;;11.03;;
20497;SDS011;10407;53.238;10.448;2023-06-24T08:31:15;90.23;;;10.67;;
20497;SDS011;10407;53.238;10.448;2023-06-24T08:33:43;94.77;;;11.93;;
20497;SDS011;10407;53.238;10.448;2023-06-24T08:36:11;94.87;;;10.40;;
20497;SDS011;10407;53.238;10.448;2023-06-24T08:38:39;91.73;;;11.00;;
20497;SDS011;10407;53.238;10.448;2023-06-24T08:41:06;90.50;;;11.17;;
20497;SDS011;10407;53.238;10.448;2023-06-24T08:43:34;91.97;;;10.03;;
20497;SDS011;10407;53.238;10.448;2023-06-24T08:46:03;89.30;;;10.33;;
20497;SDS011;10407;53.238;10.448;2023-06-24T08:48:31;89.57;;;10.60;;
20497;SDS011;10407;53.238;10.448;2023-06-24T08:51:01;89.20;;;10.97;;
20497;SDS011;10407;53.238;10.448;2023-06-24T08:53:29;89.90;;;10.90;;
20497;SDS011;10407;53.238;10.448;2023-06-24T08:55:58;89.77;;;9.93;;
20497;SDS011;10407;53.238;10.448;2023-06-24T08:58:26;88.40;;;10.17;;
20497;SDS011;10407;53.238;10.448;2023-06-24T09:00:54;90.40;;;10.50;;
20497;SDS011;10407;53.238;10.448;2023-06-24T09:03:24;90.50;;;10.20;;
20497;SDS011;10407;53.238;10.448;2023-06-24T09:05:51;90.20;;;11.63;;
20497;SDS011;10407;53.238;10.448;2023-06-24T09:08:19;90.20;;;12.13;;
20497;SDS011;10407;53.238;10.448;2023-06-24T09:10:52;90.53;;;11.17;;
20497;SDS011;10407;53.238;10.448;2023-06-24T09:13:21;89.43;;;11.40;;
20497;SDS011;10407;53.238;10.448;2023-06-24T09:15:51;90.40;;;10.73;;
20497;SDS011;10407;53.238;10.448;2023-06-24T09:18:19;88.87;;;10.30;;
20497;SDS011;10407;53.238;10.448;2023-06-24T09:20:46;89.53;;;11.53;;
20497;SDS011;10407;53.238;10.448;2023-06-24T09:23:16;96.07;;;12.17;;
20497;SDS011;10407;53.238;10.448;2023-06-24T09:25:43;94.87;;;10.60;;
20497;SDS011;10407;53.238;10.448;2023-06-24T09:28:13;90.83;;;13.00;;
20497;SDS011;10407;53.238;10.448;2023-06-24T09:30:41;90.93;;;11.40;;
20497;SDS011;10407;53.238;10.448;2023-06-24T09:33:10;91.03;;;11.73;;
20497;SDS011;10407;53.238;10.448;2023-06-24T09:35:38;89.60;;;10.93;;
20497;SDS011;10407;53.238;10.448;2023-06-24T09:38:08;90.37;;;12.10;;
20497;SDS011;10407;53.238;10.448;2023-06-24T09:40:36;92.57;;;12.27;;
20497;SDS011;10407;53.238;10.448;2023-06-24T09:43:05;90.97;;;10.60;;
20497;SDS011;10407;53.238;10.448;2023-06-24T09:45:34;91.37;;;10.93;;
20497;SDS011;10407;53.238;10.448;2023-06-24T09:48:04;91.57;;;11.57;;
20497;SDS011;10407;53.238;10.448;2023-06-24T09:50:32;91.50;;;11.40;;
20497;SDS011;10407;53.238;10.448;2023-06-24T09:53:00;89.17;;;10.50;;
20497;SDS011;10407;53.238;10.448;2023-06-24T09:55:28;89.50;;;10.13;;
20497;SDS011;10407;53.238;10.448;2023-06-24T09:57:56;91.17;;;11.40;;
20497;SDS011;10407;53.238;10.448;2023-06-24T10:00:24;90.47;;;11.30;;
20497;SDS011;10407;53.238;10.448;2023-06-24T10:02:52;91.40;;;9.83;;
20497;SDS011;10407;53.238;10.448;2023-06-24T10:05:21;92.37;;;12.10;;
20497;SDS011;10407;53.238;10.448;2023-06-24T10:07:48;94.50;;;14.63;;
20497;SDS011;10407;53.238;10.448;2023-06-24T10:10:16;94.27;;;12.30;;
20497;SDS011;10407;53.238;10.448;2023-06-24T10:16:07;91.00;;;12.07;;
20497;SDS011;10407;53.238;10.448;2023-06-24T10:18:36;95.23;;;12.10;;
20497;SDS011;10407;53.238;10.448;2023-06-24T10:21:05;90.93;;;12.00;;
20497;SDS011;10407;53.238;10.448;2023-06-24T10:23:53;90.70;;;11.70;;
20497;SDS011;10407;53.238;10.448;2023-06-24T10:26:32;94.00;;;12.80;;
20497;SDS011;10407;53.238;10.448;2023-06-24T10:34:28;91.90;;;12.87;;
20497;SDS011;10407;53.238;10.448;2023-06-24T10:37:04;90.87;;;11.53;;
20497;SDS011;10407;53.238;10.448;2023-06-24T10:39:55;104.53;;;19.83;;
20497;SDS011;10407;53.238;10.448;2023-06-24T10:45:13;91.80;;;12.67;;
20497;SDS011;10407;53.238;10.448;2023-06-24T10:47:44;92.27;;;11.33;;
20497;SDS011;10407;53.238;10.448;2023-06-24T10:50:19;91.40;;;11.30;;
20497;SDS011;10407;53.238;10.448;2023-06-24T10:52:44;89.00;;;9.87;;
20497;SDS011;10407;53.238;10.448;2023-06-24T10:55:13;89.17;;;10.60;;
20497;SDS011;10407;53.238;10.448;2023-06-24T10:57:43;96.20;;;14.53;;
20497;SDS011;10407;53.238;10.448;2023-06-24T11:00:16;91.20;;;12.03;;
20497;SDS011;10407;53.238;10.448;2023-06-24T11:02:41;109.80;;;20.10;;
20497;SDS011;10407;53.238;10.448;2023-06-24T11:05:09;96.87;;;15.97;;
20497;SDS011;10407;53.238;10.448;2023-06-24T11:07:37;89.43;;;11.40;;
20497;SDS011;10407;53.238;10.448;2023-06-24T11:10:09;108.43;;;21.53;;
20497;SDS011;10407;53.238;10.448;2023-06-24T11:12:38;92.70;;;11.93;;
20497;SDS011;10407;53.238;10.448;2023-06-24T11:15:07;90.07;;;11.80;;
20497;SDS011;10407;53.238;10.448;2023-06-24T11:17:36;92.60;;;12.87;;
20497;SDS011;10407;53.238;10.448;2023-06-24T11:20:07;91.37;;;13.00;;
20497;SDS011;10407;53.238;10.448;2023-06-24T11:22:36;92.53;;;13.13;;
20497;SDS011;10407;53.238;10.448;2023-06-24T11:25:06;90.87;;;12.70;;
20497;SDS011;10407;53.238;10.448;2023-06-24T11:27:35;92.30;;;13.93;;
20497;SDS011;10407;53.238;10.448;2023-06-24T11:30:03;91.20;;;12.57;;
20497;SDS011;10407;53.238;10.448;2023-06-24T11:32:35;92.07;;;12.77;;
20497;SDS011;10407;53.238;10.448;2023-06-24T11:35:07;89.97;;;12.30;;
20497;SDS011;10407;53.238;10.448;2023-06-24T11:37:36;92.33;;;11.23;;
20497;SDS011;10407;53.238;10.448;2023-06-24T11:40:04;91.07;;;11.60;;
20497;SDS011;10407;53.238;10.448;2023-06-24T11:45:55;92.33;;;14.07;;
20497;SDS011;10407;53.238;10.448;2023-06-24T11:48:26;92.07;;;14.17;;
20497;SDS011;10407;53.238;10.448;2023-06-24T11:50:55;92.70;;;13.80;;
20497;SDS011;10407;53.238;10.448;2023-06-24T11:53:30;89.50;;;12.23;;
20497;SDS011;10407;53.238;10.448;2023-06-24T11:56:01;91.07;;;13.20;;
20497;SDS011;10407;53.238;10.448;2023-06-24T11:58:28;91.10;;;13.37;;
20497;SDS011;10407;53.238;10.448;2023-06-24T12:00:57;91.50;;;14.40;;
20497;SDS011;10407;53.238;10.448;2023-06-24T12:03:24;94.67;;;14.10;;
20497;SDS011;10407;53.238;10.448;2023-06-24T12:05:53;92.70;;;14.40;;
20497;SDS011;10407;53.238;10.448;2023-06-24T12:08:21;92.77;;;14.40;;
20497;SDS011;10407;53.238;10.448;2023-06-24T12:10:49;93.20;;;13.80;;
20497;SDS011;10407;53.238;10.448;2023-06-24T12:13:18;92.23;;;14.77;;
20497;SDS011;10407;53.238;10.448;2023-06-24T12:15:45;91.40;;;13.70;;
20497;SDS011;10407;53.238;10.448;2023-06-24T12:18:13;92.37;;;15.10;;
20497;SDS011;10407;53.238;10.448;2023-06-24T12:20:40;89.97;;;13.30;;
20497;SDS011;10407;53.238;10.448;2023-06-24T12:23:09;91.37;;;14.60;;
20497;SDS011;10407;53.238;10.448;2023-06-24T12:25:36;92.77;;;14.80;;
20497;SDS011;10407;53.238;10.448;2023-06-24T12:28:04;92.20;;;13.47;;
20497;SDS011;10407;53.238;10.448;2023-06-24T12:30:32;91.57;;;14.30;;
20497;SDS011;10407;53.238;10.448;2023-06-24T12:33:00;96.63;;;14.67;;
20497;SDS011;10407;53.238;10.448;2023-06-24T12:35:29;93.33;;;14.10;;
20497;SDS011;10407;53.238;10.448;2023-06-24T12:37:57;93.10;;;15.53;;
20497;SDS011;10407;53.238;10.448;2023-06-24T12:40:24;95.00;;;15.70;;
20497;SDS011;10407;53.238;10.448;2023-06-24T12:42:52;93.00;;;14.37;;
20497;SDS011;10407;53.238;10.448;2023-06-24T12:45:20;92.40;;;15.23;;
20497;SDS011;10407;53.238;10.448;2023-06-24T12:47:47;90.70;;;13.63;;
20497;SDS011;10407;53.238;10.448;2023-06-24T12:50:16;91.67;;;14.50;;
20497;SDS011;10407;53.238;10.448;2023-06-24T12:52:44;91.20;;;13.63;;
20497;SDS011;10407;53.238;10.448;2023-06-24T12:55:11;91.87;;;14.67;;
20497;SDS011;10407;53.238;10.448;2023-06-24T12:57:39;92.13;;;14.40;;
20497;SDS011;10407;53.238;10.448;2023-06-24T13:00:07;95.77;;;15.00;;
20497;SDS011;10407;53.238;10.448;2023-06-24T13:05:57;91.27;;;13.87;;
20497;SDS011;10407;53.238;10.448;2023-06-24T13:08:25;93.13;;;13.33;;
20497;SDS011;10407;53.238;10.448;2023-06-24T13:10:52;92.20;;;14.57;;
20497;SDS011;10407;53.238;10.448;2023-06-24T13:13:20;90.67;;;13.13;;
20497;SDS011;10407;53.238;10.448;2023-06-24T13:15:52;89.83;;;12.17;;
20497;SDS011;10407;53.238;10.448;2023-06-24T13:18:18;92.47;;;14.50;;
20497;SDS011;10407;53.238;10.448;2023-06-24T13:20:45;91.50;;;13.43;;
20497;SDS011;10407;53.238;10.448;2023-06-24T13:23:13;90.90;;;12.97;;
20497;SDS011;10407;53.238;10.448;2023-06-24T13:25:40;90.33;;;13.20;;
20497;SDS011;10407;53.238;10.448;2023-06-24T13:28:08;90.27;;;13.23;;
20497;SDS011;10407;53.238;10.448;2023-06-24T13:30:35;91.10;;;13.93;;
20497;SDS011;10407;53.238;10.448;2023-06-24T13:33:03;94.30;;;14.23;;
20497;SDS011;10407;53.238;10.448;2023-06-24T13:35:30;91.00;;;13.73;;
20497;SDS011;10407;53.238;10.448;2023-06-24T13:37:58;95.53;;;14.23;;
20497;SDS011;10407;53.238;10.448;2023-06-24T13:40:26;92.80;;;13.37;;
20497;SDS011;10407;53.238;10.448;2023-06-24T13:42:53;94.57;;;14.47;;
20497;SDS011;10407;53.238;10.448;2023-06-24T13:45:21;90.87;;;13.63;;
20497;SDS011;10407;53.238;10.448;2023-06-24T13:47:48;92.67;;;13.03;;
20497;SDS011;10407;53.238;10.448;2023-06-24T13:50:16;91.67;;;13.63;;
20497;SDS011;10407;53.238;10.448;2023-06-24T13:52:43;90.50;;;13.63;;
20497;SDS011;10407;53.238;10.448;2023-06-24T13:55:11;91.50;;;13.20;;
20497;SDS011;10407;53.238;10.448;2023-06-24T13:57:38;90.60;;;13.70;;
20497;SDS011;10407;53.238;10.448;2023-06-24T14:00:06;90.60;;;12.63;;
20497;SDS011;10407;53.238;10.448;2023-06-24T14:02:35;90.40;;;13.60;;
20497;SDS011;10407;53.238;10.448;2023-06-24T14:05:02;91.70;;;13.10;;
20497;SDS011;10407;53.238;10.448;2023-06-24T14:07:30;92.77;;;13.70;;
20497;SDS011;10407;53.238;10.448;2023-06-24T14:09:58;95.17;;;15.30;;
20497;SDS011;10407;53.238;10.448;2023-06-24T14:12:26;91.07;;;14.23;;
20497;SDS011;10407;53.238;10.448;2023-06-24T14:14:53;96.30;;;15.10;;
20497;SDS011;10407;53.238;10.448;2023-06-24T14:17:21;92.57;;;15.00;;
20497;SDS011;10407;53.238;10.448;2023-06-24T14:19:48;96.10;;;14.77;;
20497;SDS011;10407;53.238;10.448;2023-06-24T14:22:16;91.87;;;14.27;;
20497;SDS011;10407;53.238;10.448;2023-06-24T14:24:49;90.47;;;13.03;;
20497;SDS011;10407;53.238;10.448;2023-06-24T14:30:38;91.47;;;14.50;;
20497;SDS011;10407;53.238;10.448;2023-06-24T14:33:07;92.03;;;14.60;;
20497;SDS011;10407;53.238;10.448;2023-06-24T14:35:34;94.43;;;12.87;;
20497;SDS011;10407;53.238;10.448;2023-06-24T14:38:02;91.90;;;13.33;;
20497;SDS011;10407;53.238;10.448;2023-06-24T14:40:30;92.43;;;13.67;;
20497;SDS011;10407;53.238;10.448;2023-06-24T14:42:59;92.67;;;15.73;;
20497;SDS011;10407;53.238;10.448;2023-06-24T14:45:27;92.50;;;14.80;;
20497;SDS011;10407;53.238;10.448;2023-06-24T14:47:54;95.30;;;15.83;;
20497;SDS011;10407;53.238;10.448;2023-06-24T14:50:23;91.17;;;13.57;;
20497;SDS011;10407;53.238;10.448;2023-06-24T14:52:51;93.50;;;14.83;;
20497;SDS011;10407;53.238;10.448;2023-06-24T14:55:18;92.60;;;13.90;;
20497;SDS011;10407;53.238;10.448;2023-06-24T14:57:46;90.87;;;12.47;;